sensor_id;sensor_type;location;lat;lon;timestamp;pressure;altitude;pressure_sealevel;temperature;humidity
34370;BME280;20635;55.812;37.560;2023-03-21T00:02:17;99043.38;;;25.09;24.27
34370;BME280;20635;55.812;37.560;2023-03-21T00:04:43;99034.97;;;25.09;24.40
34370;BME280;20635;55.812;37.560;2023-03-21T00:07:09;99027.38;;;25.09;24.33
34370;BME280;20635;55.812;37.560;2023-03-21T00:09:34;99024.56;;;25.09;24.26
34370;BME280;20635;55.812;37.560;2023-03-21T00:12:00;99032.16;;;25.09;24.29
34370;BME280;20635;55.812;37.560;2023-03-21T00:14:27;99034.59;;;25.10;24.21
34370;BME280;20635;55.812;37.560;2023-03-21T00:16:55;99020.94;;;25.09;24.52
34370;BME280;20635;55.812;37.560;2023-03-21T00:19:21;99020.13;;;25.08;24.52
34370;BME280;20635;55.812;37.560;2023-03-21T00:21:50;99018.59;;;25.11;24.36
34370;BME280;20635;55.812;37.560;2023-03-21T00:24:16;99018.59;;;25.11;24.44
34370;BME280;20635;55.812;37.560;2023-03-21T00:26:42;99025.03;;;25.11;24.32
34370;BME280;20635;55.812;37.560;2023-03-21T00:29:08;99016.97;;;25.10;24.54
34370;BME280;20635;55.812;37.560;2023-03-21T00:31:34;99018.59;;;25.11;24.24
34370;BME280;20635;55.812;37.560;2023-03-21T00:34:00;99008.56;;;25.10;24.45
34370;BME280;20635;55.812;37.560;2023-03-21T00:36:26;98999.78;;;25.11;24.25
34370;BME280;20635;55.812;37.560;2023-03-21T00:38:52;99002.94;;;25.10;24.33
34370;BME280;20635;55.812;37.560;2023-03-21T00:41:17;98996.16;;;25.11;24.23
34370;BME280;20635;55.812;37.560;2023-03-21T00:43:43;99000.59;;;25.12;24.56
34370;BME280;20635;55.812;37.560;2023-03-21T00:46:09;98991.38;;;25.11;24.33
34370;BME280;20635;55.812;37.560;2023-03-21T00:48:34;98984.97;;;25.11;24.59
34370;BME280;20635;55.812;37.560;2023-03-21T00:51:00;98985.78;;;25.11;24.43
34370;BME280;20635;55.812;37.560;2023-03-21T00:53:26;98988.56;;;25.11;24.41
34370;BME280;20635;55.812;37.560;2023-03-21T00:55:52;98988.56;;;25.11;24.57
34370;BME280;20635;55.812;37.560;2023-03-21T00:58:18;98991.38;;;25.11;24.39
34370;BME280;20635;55.812;37.560;2023-03-21T01:00:44;98981.81;;;25.12;24.47
34370;BME280;20635;55.812;37.560;2023-03-21T01:03:11;98976.22;;;25.12;24.46
34370;BME280;20635;55.812;37.560;2023-03-21T01:05:39;98977.38;;;25.11;24.37
34370;BME280;20635;55.812;37.560;2023-03-21T01:08:24;98983.78;;;25.12;24.27
34370;BME280;20635;55.812;37.560;2023-03-21T01:10:51;98977.38;;;25.11;24.48
34370;BME280;20635;55.812;37.560;2023-03-21T01:13:18;98979.03;;;25.12;24.47
34370;BME280;20635;55.812;37.560;2023-03-21T01:15:45;98983.78;;;25.12;24.57
34370;BME280;20635;55.812;37.560;2023-03-21T01:18:11;98978.19;;;25.12;24.41
34370;BME280;20635;55.812;37.560;2023-03-21T01:20:39;98970.63;;;25.12;24.36
34370;BME280;20635;55.812;37.560;2023-03-21T01:23:06;98969.78;;;25.12;24.53
34370;BME280;20635;55.812;37.560;2023-03-21T01:25:32;98968.63;;;25.13;24.39
34370;BME280;20635;55.812;37.560;2023-03-21T01:27:57;98957.75;;;25.11;24.43
34370;BME280;20635;55.812;37.560;2023-03-21T01:30:23;98961.38;;;25.12;24.58
34370;BME280;20635;55.812;37.560;2023-03-21T01:32:49;98961.38;;;25.12;24.56
34370;BME280;20635;55.812;37.560;2023-03-21T01:35:15;98956.59;;;25.12;24.42
34370;BME280;20635;55.812;37.560;2023-03-21T01:37:41;98962.22;;;25.12;24.38
34370;BME280;20635;55.812;37.560;2023-03-21T01:40:10;98955.75;;;25.12;24.50
34370;BME280;20635;55.812;37.560;2023-03-21T01:42:40;98963.34;;;25.11;24.50
34370;BME280;20635;55.812;37.560;2023-03-21T01:46:06;98959.41;;;25.12;24.43
34370;BME280;20635;55.812;37.560;2023-03-21T01:47:52;98955.75;;;25.12;24.42
34370;BME280;20635;55.812;37.560;2023-03-21T01:50:24;98950.16;;;25.12;24.64
34370;BME280;20635;55.812;37.560;2023-03-21T01:53:10;98949.00;;;25.13;24.54
34370;BME280;20635;55.812;37.560;2023-03-21T01:55:36;98954.59;;;25.13;24.35
34370;BME280;20635;55.812;37.560;2023-03-21T01:58:18;98953.78;;;25.12;24.33
34370;BME280;20635;55.812;37.560;2023-03-21T02:00:58;98958.56;;;25.12;24.48
34370;BME280;20635;55.812;37.560;2023-03-21T02:03:43;98951.00;;;25.12;24.44
34370;BME280;20635;55.812;37.560;2023-03-21T02:09:27;98951.81;;;25.13;24.35
34370;BME280;20635;55.812;37.560;2023-03-21T02:11:56;98949.00;;;25.13;24.46
34370;BME280;20635;55.812;37.560;2023-03-21T02:14:29;98942.22;;;25.14;24.41
34370;BME280;20635;55.812;37.560;2023-03-21T02:19:51;98944.53;;;25.12;24.45
34370;BME280;20635;55.812;37.560;2023-03-21T02:27:39;98926.22;;;25.14;24.38
34370;BME280;20635;55.812;37.560;2023-03-21T02:32:58;98927.38;;;25.13;24.62
34370;BME280;20635;55.812;37.560;2023-03-21T02:38:00;98927.38;;;25.13;24.37
34370;BME280;20635;55.812;37.560;2023-03-21T02:40:31;98920.97;;;25.13;24.52
34370;BME280;20635;55.812;37.560;2023-03-21T02:45:27;98929.38;;;25.13;24.63
34370;BME280;20635;55.812;37.560;2023-03-21T02:48:02;98919.78;;;25.14;24.49
34370;BME280;20635;55.812;37.560;2023-03-21T02:50:42;98931.00;;;25.14;24.51
34370;BME280;20635;55.812;37.560;2023-03-21T02:53:29;98924.59;;;25.13;24.52
34370;BME280;20635;55.812;37.560;2023-03-21T02:55:57;98922.59;;;25.14;24.53
34370;BME280;20635;55.812;37.560;2023-03-21T02:58:24;98921.78;;;25.13;24.46
34370;BME280;20635;55.812;37.560;2023-03-21T03:00:56;98918.16;;;25.13;24.48
34370;BME280;20635;55.812;37.560;2023-03-21T03:03:47;98913.38;;;25.13;24.45
34370;BME280;20635;55.812;37.560;2023-03-21T03:06:17;98920.59;;;25.14;24.65
34370;BME280;20635;55.812;37.560;2023-03-21T03:11:13;98916.19;;;25.13;24.47
34370;BME280;20635;55.812;37.560;2023-03-21T03:16:36;98905.78;;;25.14;24.43
34370;BME280;20635;55.812;37.560;2023-03-21T03:19:02;98897.72;;;25.12;24.58
34370;BME280;20635;55.812;37.560;2023-03-21T03:21:33;98900.16;;;25.14;24.49
34370;BME280;20635;55.812;37.560;2023-03-21T03:24:06;98890.13;;;25.13;24.47
34370;BME280;20635;55.812;37.560;2023-03-21T03:29:05;98883.34;;;25.14;24.53
34370;BME280;20635;55.812;37.560;2023-03-21T03:31:34;98879.72;;;25.13;24.45
34370;BME280;20635;55.812;37.560;2023-03-21T03:34:07;98892.56;;;25.14;24.38
34370;BME280;20635;55.812;37.560;2023-03-21T03:36:38;98881.34;;;25.14;24.48
34370;BME280;20635;55.812;37.560;2023-03-21T03:39:11;98889.78;;;25.14;24.53
34370;BME280;20635;55.812;37.560;2023-03-21T03:41:46;98892.56;;;25.14;24.40
34370;BME280;20635;55.812;37.560;2023-03-21T03:44:14;98898.19;;;25.14;24.50
34370;BME280;20635;55.812;37.560;2023-03-21T03:49:21;98892.56;;;25.14;24.53
34370;BME280;20635;55.812;37.560;2023-03-21T03:51:53;98899.00;;;25.15;24.59
34370;BME280;20635;55.812;37.560;2023-03-21T03:54:43;98887.78;;;25.15;24.46
34370;BME280;20635;55.812;37.560;2023-03-21T03:57:09;98889.78;;;25.14;24.65
34370;BME280;20635;55.812;37.560;2023-03-21T03:59:38;98890.59;;;25.15;24.65
34370;BME280;20635;55.812;37.560;2023-03-21T04:02:18;98891.41;;;25.15;24.54
34370;BME280;20635;55.812;37.560;2023-03-21T04:04:45;98878.56;;;25.14;24.66
34370;BME280;20635;55.812;37.560;2023-03-21T04:07:12;98880.19;;;25.15;24.59
34370;BME280;20635;55.812;37.560;2023-03-21T04:09:38;98881.00;;;25.16;24.51
34370;BME280;20635;55.812;37.560;2023-03-21T04:12:04;98875.41;;;25.16;24.50
34370;BME280;20635;55.812;37.560;2023-03-21T04:14:30;98871.78;;;25.15;24.42
34370;BME280;20635;55.812;37.560;2023-03-21T04:16:56;98868.97;;;25.15;24.42
